createdAt,value
2023-11-12T00:00:33.722Z,7.30
2023-11-12T00:04:22.831Z,6.20
2023-11-12T00:08:05.369Z,7.60
2023-11-12T00:11:48.347Z,6.30
2023-11-12T00:15:32.072Z,8.80
2023-11-12T00:22:38.439Z,3.90
2023-11-12T00:26:21.742Z,5.90
2023-11-12T00:30:11.892Z,4.60
2023-11-12T00:33:55.844Z,3.90
2023-11-12T00:37:38.564Z,4.90
2023-11-12T00:41:15.021Z,7.00
2023-11-12T00:44:51.900Z,6.50
2023-11-12T00:48:32.854Z,2.90
2023-11-12T00:52:00.724Z,4.00
2023-11-12T00:55:35.039Z,3.30
2023-11-12T00:59:10.111Z,2.80
2023-11-12T01:02:45.477Z,4.10
2023-11-12T01:06:19.032Z,2.60
2023-11-12T01:13:11.591Z,3.00
2023-11-12T01:16:47.961Z,4.20
2023-11-12T01:20:22.302Z,7.00
2023-11-12T01:24:03.419Z,6.50
2023-11-12T01:27:45.760Z,5.30
2023-11-12T01:31:23.222Z,6.30
2023-11-12T01:35:00.277Z,7.90
2023-11-12T01:38:40.176Z,4.80
2023-11-12T01:42:10.795Z,6.10
2023-11-12T01:45:41.665Z,4.20
2023-11-12T01:49:13.942Z,4.10
2023-11-12T01:52:44.443Z,5.50
2023-11-12T01:56:14.901Z,5.90
2023-11-12T01:59:47.118Z,7.40
2023-11-12T02:03:17.634Z,6.70
2023-11-12T02:06:50.623Z,7.10
2023-11-12T02:10:25.201Z,9.70
2023-11-12T02:14:05.949Z,9.20
2023-11-12T02:17:42.765Z,10.40
2023-11-12T02:21:20.185Z,13.30
2023-11-12T02:24:56.923Z,11.90
2023-11-12T02:28:33.629Z,9.70
2023-11-12T02:32:17.091Z,10.60
2023-11-12T02:36:00.340Z,10.90
2023-11-12T02:39:42.963Z,13.00
2023-11-12T02:43:19.730Z,11.40
2023-11-12T02:46:56.264Z,12.10
2023-11-12T02:50:33.130Z,15.60
2023-11-12T02:54:09.867Z,21.00
2023-11-12T02:57:52.536Z,16.60
2023-11-12T03:01:28.852Z,16.90
2023-11-12T03:05:11.298Z,18.60
2023-11-12T03:07:45.192Z,13.90
2023-11-12T03:10:19.220Z,14.20
2023-11-12T03:12:52.982Z,15.50
2023-11-12T03:15:26.953Z,13.90
2023-11-12T03:18:00.692Z,13.70
2023-11-12T03:20:41.193Z,21.50
2023-11-12T03:23:08.892Z,18.80
2023-11-12T03:25:46.434Z,14.60
2023-11-12T03:28:14.175Z,17.00
2023-11-12T03:30:48.222Z,18.80
2023-11-12T03:33:15.960Z,14.60
2023-11-12T03:35:44.021Z,14.90
2023-11-12T03:38:12.369Z,14.20
2023-11-12T03:40:44.634Z,16.90
2023-11-12T03:43:22.181Z,15.70
2023-11-12T03:45:49.814Z,16.70
2023-11-12T03:48:20.469Z,15.90
2023-11-12T03:50:53.552Z,18.00
2023-11-12T03:53:24.421Z,16.50
2023-11-12T03:55:57.083Z,19.90
2023-11-12T03:58:28.397Z,18.10
2023-11-12T04:01:02.000Z,17.90
2023-11-12T04:03:35.805Z,17.50
2023-11-12T04:06:04.700Z,18.30
2023-11-12T04:08:48.488Z,17.50
2023-11-12T04:11:17.179Z,18.40
2023-11-12T04:13:44.956Z,16.90
2023-11-12T04:16:13.647Z,19.60
2023-11-12T04:18:41.424Z,14.00
2023-11-12T04:21:15.148Z,14.50
2023-11-12T04:23:49.280Z,14.70
2023-11-12T04:26:23.688Z,15.20
2023-11-12T04:28:51.449Z,16.00
2023-11-12T04:31:25.091Z,18.00
2023-11-12T04:33:55.364Z,15.90
2023-11-12T04:36:23.168Z,17.20
2023-11-12T04:38:50.918Z,17.00
2023-11-12T04:41:19.543Z,15.10
2023-11-12T04:43:47.097Z,12.50
2023-11-12T04:46:22.525Z,14.10
2023-11-12T04:48:53.538Z,12.60
2023-11-12T04:51:25.938Z,9.60
2023-11-12T04:56:30.567Z,11.00
2023-11-12T04:59:03.081Z,7.60
2023-11-12T05:01:34.868Z,11.50
2023-11-12T05:04:12.542Z,9.30
2023-11-12T05:06:40.492Z,7.70
2023-11-12T05:09:12.701Z,11.10
2023-11-12T05:11:46.512Z,9.20
2023-11-12T05:14:23.316Z,8.00
2023-11-12T05:16:57.018Z,5.90
2023-11-12T05:19:33.566Z,7.40
2023-11-12T05:22:01.321Z,6.90
2023-11-12T05:24:37.042Z,8.40
2023-11-12T05:27:05.823Z,8.60
2023-11-12T05:29:45.675Z,8.40
2023-11-12T05:32:13.405Z,5.70
2023-11-12T05:34:43.171Z,7.90
2023-11-12T05:37:25.027Z,6.90
2023-11-12T05:39:53.828Z,7.40
2023-11-12T05:42:25.784Z,8.50
2023-11-12T05:44:59.657Z,8.80
2023-11-12T05:47:30.214Z,10.50
2023-11-12T05:50:02.442Z,9.50
2023-11-12T05:52:34.697Z,13.30
2023-11-12T05:57:38.855Z,13.70
2023-11-12T06:00:12.269Z,11.30
2023-11-12T06:02:49.668Z,9.70
2023-11-12T06:05:23.325Z,11.10
2023-11-12T06:07:50.993Z,13.80
2023-11-12T06:10:18.948Z,10.90
2023-11-12T06:12:55.625Z,11.00
2023-11-12T06:15:28.422Z,11.10
2023-11-12T06:17:56.337Z,10.70
2023-11-12T06:20:26.860Z,12.80
2023-11-12T06:22:54.901Z,11.60
2023-11-12T06:25:26.851Z,10.90
2023-11-12T06:27:59.415Z,11.50
2023-11-12T06:33:01.546Z,14.00
2023-11-12T06:35:35.197Z,11.30
2023-11-12T06:38:05.808Z,15.50
2023-11-12T06:40:39.275Z,15.30
2023-11-12T06:43:14.412Z,15.60
2023-11-12T06:45:48.115Z,16.10
2023-11-12T06:48:20.087Z,14.90
2023-11-12T06:50:52.431Z,13.90
2023-11-12T06:53:24.563Z,16.20
2023-11-12T06:55:58.787Z,16.50
2023-11-12T06:58:32.490Z,15.30
2023-11-12T07:01:01.775Z,15.40
2023-11-12T07:03:34.571Z,13.10
2023-11-12T07:06:09.227Z,13.10
2023-11-12T07:08:41.915Z,19.40
2023-11-12T07:11:15.419Z,16.60
2023-11-12T07:13:46.575Z,15.30
2023-11-12T07:16:21.720Z,17.90
2023-11-12T07:18:54.851Z,19.50
2023-11-12T07:21:30.095Z,19.20
2023-11-12T07:24:04.519Z,15.80
2023-11-12T07:26:36.662Z,16.00
2023-11-12T07:29:15.016Z,17.70
2023-11-12T07:31:44.497Z,18.10
2023-11-12T07:34:15.096Z,15.10
2023-11-12T07:36:49.213Z,14.60
2023-11-12T07:39:22.766Z,15.70
2023-11-12T07:41:55.929Z,18.10
2023-11-12T07:44:37.048Z,19.40
2023-11-12T07:47:06.279Z,16.10
2023-11-12T07:49:34.798Z,12.90
2023-11-12T07:52:07.011Z,9.50
2023-11-12T07:57:11.848Z,10.10
2023-11-12T07:59:44.082Z,13.40
2023-11-12T08:02:16.368Z,4.80
2023-11-12T08:07:28.040Z,5.90
2023-11-12T08:09:59.705Z,4.70
2023-11-12T08:12:33.563Z,5.10
2023-11-12T08:15:01.285Z,5.90
2023-11-12T08:17:29.116Z,2.90
2023-11-12T08:19:59.219Z,4.10
2023-11-12T08:22:26.882Z,2.50
2023-11-12T08:24:56.358Z,2.70
2023-11-12T08:27:24.222Z,1.30
2023-11-12T08:29:54.388Z,1.50
2023-11-12T08:32:22.804Z,1.80
2023-11-12T08:34:55.604Z,3.50
2023-11-12T08:37:29.443Z,2.00
2023-11-12T08:39:59.453Z,2.40
2023-11-12T08:42:28.125Z,2.30
2023-11-12T08:44:58.000Z,1.80
2023-11-12T08:47:30.274Z,3.60
2023-11-12T08:52:31.714Z,3.10
2023-11-12T08:54:59.402Z,2.70
2023-11-12T08:57:37.078Z,2.60
2023-11-12T09:00:07.871Z,1.90
2023-11-12T09:02:42.128Z,2.90
2023-11-12T09:05:15.801Z,2.20
2023-11-12T09:07:54.728Z,3.20
2023-11-12T09:10:22.346Z,2.30
2023-11-12T09:12:57.198Z,1.90
2023-11-12T09:15:30.939Z,2.50
2023-11-12T09:17:58.693Z,2.60
2023-11-12T09:20:27.015Z,2.20
2023-11-12T09:23:00.807Z,2.50
2023-11-12T09:25:34.430Z,1.60
2023-11-12T09:28:04.082Z,2.10
2023-11-12T09:30:49.513Z,3.30
2023-11-12T09:33:56.668Z,2.10
2023-11-12T09:36:24.478Z,2.70
2023-11-12T09:38:52.240Z,3.30
2023-11-12T09:41:21.425Z,2.50
2023-11-12T09:43:55.142Z,2.30
2023-11-12T09:46:27.500Z,2.60
2023-11-12T09:48:55.221Z,2.10
2023-11-12T09:51:25.570Z,2.80
2023-11-12T09:53:54.168Z,2.80
2023-11-12T09:56:29.345Z,2.80
2023-11-12T09:59:05.417Z,5.20
2023-11-12T10:01:39.870Z,3.80
2023-11-12T10:04:14.582Z,4.10
2023-11-12T10:06:43.159Z,2.80
2023-11-12T10:09:32.983Z,3.30
2023-11-12T10:12:04.899Z,3.00
2023-11-12T10:14:36.461Z,3.70
2023-11-12T10:17:07.955Z,2.10
2023-11-12T10:19:56.079Z,2.40
2023-11-12T10:22:44.336Z,2.60
2023-11-12T10:25:12.158Z,2.00
2023-11-12T10:27:55.492Z,1.70
2023-11-12T10:30:25.602Z,2.10
2023-11-12T10:35:45.449Z,3.70
2023-11-12T10:38:20.279Z,2.10
2023-11-12T10:41:03.620Z,2.10
2023-11-12T10:43:37.347Z,3.10
2023-11-12T10:46:06.040Z,3.30
2023-11-12T10:48:44.074Z,2.10
2023-11-12T10:51:17.835Z,2.10
2023-11-12T10:53:55.857Z,2.30
2023-11-12T10:56:24.048Z,1.40
2023-11-12T10:58:59.898Z,2.10
2023-11-12T11:01:30.534Z,1.30
2023-11-12T11:03:58.348Z,3.00
2023-11-12T11:06:26.361Z,1.60
2023-11-12T11:09:00.347Z,1.80
2023-11-12T11:11:29.984Z,2.50
2023-11-12T11:13:57.616Z,1.30
2023-11-12T11:16:59.120Z,1.20
2023-11-12T11:19:46.172Z,1.10
2023-11-12T11:22:30.911Z,1.10
2023-11-12T11:25:26.458Z,1.90
2023-11-12T11:28:20.432Z,1.50
2023-11-12T11:31:14.721Z,0.80
2023-11-12T11:33:53.045Z,0.70
2023-11-12T11:36:24.141Z,0.80
2023-11-12T11:39:04.200Z,1.20
2023-11-12T11:42:01.457Z,0.70
2023-11-12T11:44:43.185Z,1.10
2023-11-12T11:47:27.938Z,0.80
2023-11-12T11:50:05.776Z,0.50
2023-11-12T11:52:43.776Z,0.40
2023-11-12T11:55:21.579Z,0.60
2023-11-12T11:57:55.562Z,0.40
2023-11-12T12:00:25.325Z,0.80
2023-11-12T12:03:02.482Z,1.90
2023-11-12T12:05:34.279Z,0.70
2023-11-12T12:08:08.021Z,2.00
2023-11-12T12:10:37.318Z,0.40
2023-11-12T12:13:09.649Z,1.20
2023-11-12T12:18:27.485Z,0.30
2023-11-12T12:21:04.499Z,0.70
2023-11-12T12:23:32.106Z,0.70
2023-11-12T12:26:13.070Z,0.40
2023-11-12T12:28:47.436Z,0.30
2023-11-12T12:31:15.221Z,0.70
2023-11-12T12:34:00.788Z,1.10
2023-11-12T12:36:35.638Z,0.90
2023-11-12T12:39:07.933Z,1.20
2023-11-12T12:41:36.058Z,0.80
2023-11-12T12:44:24.204Z,0.30
2023-11-12T12:46:58.136Z,1.70
2023-11-12T12:49:35.785Z,1.40
2023-11-12T12:52:23.311Z,0.60
2023-11-12T12:54:54.763Z,1.50
2023-11-12T12:57:25.990Z,1.10
2023-11-12T12:59:53.623Z,0.60
2023-11-12T13:02:23.632Z,1.80
2023-11-12T13:04:54.464Z,1.30
2023-11-12T13:07:26.015Z,0.40
2023-11-12T13:10:00.650Z,2.20
2023-11-12T13:12:32.113Z,1.10
2023-11-12T13:15:04.884Z,1.70
2023-11-12T13:17:38.754Z,0.40
2023-11-12T13:20:23.026Z,1.10
2023-11-12T13:22:52.032Z,3.60
2023-11-12T13:25:25.891Z,2.50
2023-11-12T13:27:54.876Z,2.80
2023-11-12T13:30:29.666Z,2.40
2023-11-12T13:32:57.390Z,7.90
2023-11-12T13:35:31.429Z,3.40
2023-11-12T13:37:59.116Z,0.80
2023-11-12T13:40:41.221Z,1.70
2023-11-12T13:43:09.350Z,1.30
2023-11-12T13:45:40.297Z,1.20
2023-11-12T13:48:10.118Z,1.70
2023-11-12T13:50:51.056Z,1.10
2023-11-12T13:53:20.365Z,1.70
2023-11-12T13:55:59.420Z,3.20
2023-11-12T13:58:29.074Z,2.10
2023-11-12T14:00:56.771Z,1.20
2023-11-12T14:03:24.582Z,2.60
2023-11-12T14:05:57.333Z,2.60
2023-11-12T14:08:30.360Z,1.60
2023-11-12T14:11:02.744Z,0.90
2023-11-12T14:16:12.408Z,1.40
2023-11-12T14:18:46.592Z,1.10
2023-11-12T14:21:19.939Z,0.70
2023-11-12T14:23:51.497Z,1.40
2023-11-12T14:26:27.451Z,1.60
2023-11-12T14:29:01.653Z,2.10
2023-11-12T14:31:35.462Z,2.10
2023-11-12T14:34:16.435Z,2.40
2023-11-12T14:36:46.616Z,8.30
2023-11-12T14:39:24.689Z,5.60
2023-11-12T14:41:57.072Z,2.90
2023-11-12T14:44:34.335Z,3.60
2023-11-12T14:47:02.091Z,3.10
2023-11-12T14:49:33.551Z,2.80
2023-11-12T14:52:08.286Z,2.10
2023-11-12T14:54:35.996Z,4.60
2023-11-12T14:57:05.874Z,3.40
2023-11-12T14:59:41.206Z,2.80
2023-11-12T15:02:12.754Z,5.80
2023-11-12T15:04:45.181Z,4.00
2023-11-12T15:10:08.406Z,3.10
2023-11-12T15:12:51.349Z,3.10
2023-11-12T15:15:31.369Z,3.50
2023-11-12T15:18:15.512Z,2.40
2023-11-12T15:20:55.393Z,4.80
2023-11-12T15:23:36.182Z,3.50
2023-11-12T15:26:21.045Z,3.10
2023-11-12T15:29:02.001Z,2.80
2023-11-12T15:31:43.399Z,2.90
2023-11-12T15:34:23.355Z,4.50
2023-11-12T15:37:03.275Z,3.20
2023-11-12T15:39:45.636Z,4.20
2023-11-12T15:42:25.623Z,3.70
2023-11-12T15:45:07.299Z,7.20
2023-11-12T15:47:47.684Z,4.70
2023-11-12T15:50:31.557Z,8.00
2023-11-12T15:53:12.727Z,4.90
2023-11-12T15:55:52.678Z,5.50
2023-11-12T15:58:32.408Z,6.20
2023-11-12T16:01:12.928Z,5.60
2023-11-12T16:03:53.645Z,6.00
2023-11-12T16:06:33.652Z,6.40
2023-11-12T16:09:13.685Z,6.90
2023-11-12T16:11:53.576Z,6.40
2023-11-12T16:14:34.194Z,7.30
2023-11-12T16:17:14.140Z,5.90
2023-11-12T16:19:55.144Z,6.30
2023-11-12T16:22:38.281Z,6.00
2023-11-12T16:25:18.477Z,7.10
2023-11-12T16:27:58.421Z,5.20
2023-11-12T16:30:39.176Z,7.10
2023-11-12T16:33:19.058Z,6.30
2023-11-12T16:35:59.301Z,7.80
2023-11-12T16:38:46.744Z,12.90
2023-11-12T16:41:27.546Z,12.40
2023-11-12T16:44:07.418Z,6.60
2023-11-12T16:46:48.652Z,4.70
2023-11-12T16:49:28.594Z,6.60
2023-11-12T16:52:09.304Z,7.20
2023-11-12T16:54:49.325Z,5.50
2023-11-12T16:57:29.248Z,5.80
2023-11-12T17:00:09.703Z,6.80
2023-11-12T17:02:49.762Z,6.10
2023-11-12T17:05:29.853Z,5.50
2023-11-12T17:08:09.895Z,4.70
2023-11-12T17:10:51.527Z,6.50
2023-11-12T17:13:34.215Z,6.40
2023-11-12T17:16:17.478Z,6.60
2023-11-12T17:18:51.394Z,7.90
2023-11-12T17:21:25.297Z,7.30
2023-11-12T17:24:02.060Z,9.60
2023-11-12T17:26:35.813Z,7.00
2023-11-12T17:29:09.811Z,9.80
2023-11-12T17:31:43.543Z,8.90
2023-11-12T17:34:18.049Z,7.50
2023-11-12T17:36:51.934Z,6.10
2023-11-12T17:39:26.279Z,8.20
2023-11-12T17:42:06.120Z,8.90
2023-11-12T17:44:40.510Z,5.90
2023-11-12T17:47:15.113Z,8.00
2023-11-12T17:49:56.832Z,9.70
2023-11-12T17:52:36.839Z,7.30
2023-11-12T17:55:16.756Z,7.90
2023-11-12T17:57:58.196Z,7.20
2023-11-12T18:00:38.592Z,10.10
2023-11-12T18:03:22.588Z,7.60
2023-11-12T18:06:11.594Z,8.80
2023-11-12T18:08:52.065Z,7.40
2023-11-12T18:11:32.435Z,10.60
2023-11-12T18:14:09.511Z,12.60
2023-11-12T18:16:46.101Z,8.10
2023-11-12T18:19:20.306Z,10.00
2023-11-12T18:21:54.122Z,8.30
2023-11-12T18:24:28.079Z,10.90
2023-11-12T18:27:01.835Z,10.80
2023-11-12T18:29:35.698Z,8.40
2023-11-12T18:32:11.299Z,9.60
2023-11-12T18:34:48.590Z,9.20
2023-11-12T18:37:22.435Z,10.90
2023-11-12T18:39:56.199Z,11.60
2023-11-12T18:42:31.079Z,8.60
2023-11-12T18:45:05.237Z,11.20
2023-11-12T18:47:38.950Z,10.80
2023-11-12T18:50:12.760Z,8.60
2023-11-12T18:52:47.153Z,9.70
2023-11-12T18:55:21.627Z,9.90
2023-11-12T18:57:55.450Z,10.60
2023-11-12T19:00:29.373Z,9.90
2023-11-12T19:03:05.118Z,8.90
2023-11-12T19:05:39.041Z,9.50
2023-11-12T19:09:21.763Z,10.50
2023-11-12T19:13:04.717Z,10.10
2023-11-12T19:16:50.786Z,12.70
2023-11-12T19:20:27.655Z,11.00
2023-11-12T19:24:04.571Z,10.80
2023-11-12T19:27:47.219Z,11.30
2023-11-12T19:31:28.234Z,11.80
2023-11-12T19:35:10.081Z,11.60
2023-11-12T19:38:47.320Z,12.50
2023-11-12T19:42:39.919Z,12.00
2023-11-12T19:46:23.096Z,11.40
2023-11-12T19:50:06.744Z,13.50
2023-11-12T19:57:10.059Z,13.70
2023-11-12T20:00:53.793Z,11.00
2023-11-12T20:04:30.653Z,11.80
2023-11-12T20:08:07.216Z,13.30
2023-11-12T20:11:43.890Z,14.10
2023-11-12T20:15:29.774Z,14.10
2023-11-12T20:19:15.802Z,11.00
2023-11-12T20:23:06.833Z,13.00
2023-11-12T20:26:52.823Z,11.40
2023-11-12T20:30:39.481Z,15.40
2023-11-12T20:34:21.969Z,13.90
2023-11-12T20:38:08.912Z,10.70
2023-11-12T20:41:53.748Z,12.80
2023-11-12T20:45:39.887Z,11.40
2023-11-12T20:49:23.276Z,11.10
2023-11-12T20:53:06.325Z,11.60
2023-11-12T20:56:49.319Z,10.10
2023-11-12T21:00:32.665Z,10.20
2023-11-12T21:07:40.037Z,14.00
2023-11-12T21:11:22.853Z,11.20
2023-11-12T21:15:05.554Z,14.30
2023-11-12T21:18:49.637Z,9.90
2023-11-12T21:22:32.790Z,12.20
2023-11-12T21:26:15.431Z,11.70
2023-11-12T21:30:01.956Z,12.30
2023-11-12T21:33:45.260Z,12.30
2023-11-12T21:37:34.891Z,13.40
2023-11-12T21:41:21.747Z,10.90
2023-11-12T21:45:11.011Z,11.20
2023-11-12T21:49:00.100Z,10.20
2023-11-12T21:52:42.923Z,11.90
2023-11-12T21:56:26.332Z,9.60
2023-11-12T22:00:13.324Z,7.90
2023-11-12T22:03:55.828Z,9.10
2023-11-12T22:07:38.953Z,8.20
2023-11-12T22:11:21.598Z,7.90
2023-11-12T22:15:10.960Z,8.40
2023-11-12T22:18:58.992Z,8.40
2023-11-12T22:22:41.482Z,8.00
2023-11-12T22:26:23.971Z,7.80
2023-11-12T22:30:07.630Z,8.60
2023-11-12T22:33:50.342Z,7.90
2023-11-12T22:37:32.931Z,7.90
2023-11-12T22:41:16.918Z,7.40
2023-11-12T22:44:59.709Z,8.30
2023-11-12T22:48:43.123Z,10.20
2023-11-12T22:52:26.391Z,8.60
2023-11-12T22:56:09.206Z,6.80
2023-11-12T22:59:54.133Z,7.20
2023-11-12T23:03:36.886Z,9.00
2023-11-12T23:06:46.338Z,7.90
2023-11-12T23:09:22.829Z,8.80
2023-11-12T23:11:50.572Z,8.80
2023-11-12T23:14:27.953Z,9.50
2023-11-12T23:17:02.389Z,9.30
2023-11-12T23:19:36.314Z,9.20
2023-11-12T23:22:05.841Z,9.40
2023-11-12T23:24:49.077Z,10.40
2023-11-12T23:27:22.873Z,11.50
2023-11-12T23:29:57.363Z,9.20
2023-11-12T23:32:25.357Z,14.40
2023-11-12T23:34:59.207Z,10.80
2023-11-12T23:37:35.368Z,11.70
2023-11-12T23:40:10.981Z,11.10
2023-11-12T23:42:39.241Z,12.50
2023-11-12T23:45:14.234Z,12.40
2023-11-12T23:47:47.990Z,11.60
2023-11-12T23:50:23.632Z,14.60
2023-11-12T23:52:51.235Z,12.70
2023-11-12T23:55:22.978Z,14.20
2023-11-12T23:57:54.486Z,14.50
